Time;durP1;ratioP1;P1;durP2;ratioP2;P2;SDS_P1;SDS_P2;PMS_P1;PMS_P2;Temp;Humidity;BMP_temperature;BMP_pressure;BME280_temperature;BME280_humidity;BME280_pressure;Samples;Min_cycle;Max_cycle;Signal;HPM_P1;HPM_P2
2022/10/30 00:00:52;;;;;;;;;;;;;;;;;;5050449;28;1406;-73
2022/10/30 00:03:19;;;;;;;;;;;;;;;;;;5049859;28;833;-74
2022/10/30 00:05:45;;;;;;;;;;;;;;;;;;5050526;28;949;-73
2022/10/30 00:08:12;;;;;;;;;;;;;;;;;;5051627;28;933;-73
2022/10/30 00:10:38;;;;;;;;;;;;;;;;;;5050660;28;1399;-73
2022/10/30 00:13:05;;;;;;;;;;;;;;;;;;5048668;28;1175;-73
2022/10/30 00:15:32;;;;;;;;;;;;;;;;;;5050649;28;1071;-73
2022/10/30 00:17:58;;;;;;;;;;;;;;;;;;5050365;28;937;-73
2022/10/30 00:20:25;;;;;;;;;;;;;;;;;;5049865;28;1976;-74
2022/10/30 00:22:51;;;;;;;;;;;;;;;;;;5049934;28;996;-74
2022/10/30 00:25:17;;;;;;;;;;;;;;;;;;5049234;28;1141;-73
2022/10/30 00:27:44;;;;;;;;;;;;;;;;;;5049444;28;1153;-74
2022/10/30 00:30:11;;;;;;;;;;;;;;;;;;5049825;28;1372;-73
2022/10/30 00:32:39;;;;;;;;;;;;;;;;;;5048844;28;1795;-73
2022/10/30 00:35:05;;;;;;;;;;;;;;;;;;5048767;28;1182;-73
2022/10/30 00:37:32;;;;;;;;;;;;;;;;;;5050337;28;893;-74
2022/10/30 00:39:58;;;;;;;;;;;;;;;;;;5049861;28;1914;-74
2022/10/30 00:42:28;;;;;;;;;;;;;;;;;;5047964;28;1314;-74
2022/10/30 00:44:55;;;;;;;;;;;;;;;;;;5048772;28;1397;-74
2022/10/30 00:47:23;;;;;;;;;;;;;;;;;;5049078;28;1422;-74
2022/10/30 00:49:55;;;;;;;;;;;;;;;;;;5048834;28;1213;-74
2022/10/30 00:52:21;;;;;;;;;;;;;;;;;;5048052;28;1424;-73
2022/10/30 00:54:47;;;;;;;;;;;;;;;;;;5048697;28;1657;-74
2022/10/30 00:57:14;;;;;;;;;;;;;;;;;;5053453;28;1459;-74
2022/10/30 00:59:41;;;;;;;;;;;;;;;;;;5052355;28;1918;-74
2022/10/30 01:02:07;;;;;;;;;;;;;;;;;;5052840;28;1285;-73
2022/10/30 01:04:34;;;;;;;;;;;;;;;;;;5051894;28;2155;-74
2022/10/30 01:07:02;;;;;;;;;;;;;;;;;;5052543;28;1384;-74
2022/10/30 01:09:28;;;;;;;;;;;;;;;;;;5052247;28;1251;-74
2022/10/30 01:11:57;;;;;;;;;;;;;;;;;;5050980;28;1345;-73
2022/10/30 01:14:23;;;;;;;;;;;;;;;;;;5051998;28;1400;-74
2022/10/30 01:16:54;;;;;;;;;;;;;;;;;;5051976;28;1210;-74
2022/10/30 01:19:26;;;;;;;;;;;;;;;;;;5051821;28;1906;-74
2022/10/30 01:21:57;;;;;;;;;;;;;;;;;;5050824;28;1360;-74
2022/10/30 01:24:31;;;;;;;;;;;;;;;;;;5053209;28;818;-74
2022/10/30 01:27:00;;;;;;;;;;;;;;;;;;5051706;28;1524;-73
2022/10/30 01:29:30;;;;;;;;;;;;;;;;;;5064788;23;3770;-77
2022/10/30 01:31:59;;;;;;;;;;;;;;;;;;5070066;28;1199;-74
2022/10/30 01:34:27;;;;;;;;;;;;;;;;;;5051426;28;1329;-75
2022/10/30 01:36:55;;;;;;;;;;;;;;;;;;5061846;28;1513;-76
2022/10/30 01:39:22;;;;;;;;;;;;;;;;;;5055455;28;1906;-77
2022/10/30 01:41:50;;;;;;;;;;;;;;;;;;5050736;28;1435;-77
2022/10/30 01:44:17;;;;;;;;;;;;;;;;;;5035131;28;942;-74
2022/10/30 01:46:46;;;;;;;;;;;;;;;;;;5035045;28;1246;-74
2022/10/30 01:49:18;;;;;;;;;;;;;;;;;;5034320;28;1483;-76
2022/10/30 01:51:48;;;;;;;;;;;;;;;;;;5033837;28;1203;-76
2022/10/30 01:54:17;;;;;;;;;;;;;;;;;;5051269;28;853;-76
2022/10/30 01:56:44;;;;;;;;;;;;;;;;;;5051427;28;1178;-76
2022/10/30 01:59:13;;;;;;;;;;;;;;;;;;5034259;28;1918;-76
2022/10/30 02:01:39;;;;;;;;;;;;;;;;;;5050555;28;1486;-76
2022/10/30 02:04:06;;;;;;;;;;;;;;;;;;5034782;28;1244;-76
2022/10/30 02:06:33;;;;;;;;;;;;;;;;;;5050766;28;1534;-76
2022/10/30 02:09:00;;;;;;;;;;;;;;;;;;5033435;28;1353;-74
2022/10/30 02:11:26;;;;;;;;;;;;;;;;;;5050249;28;1279;-77
2022/10/30 02:13:52;;;;;;;;;;;;;;;;;;5050875;28;1210;-76
2022/10/30 02:16:20;;;;;;;;;;;;;;;;;;5034442;28;1469;-76
2022/10/30 02:18:46;;;;;;;;;;;;;;;;;;5050309;28;1965;-77
2022/10/30 02:21:14;;;;;;;;;;;;;;;;;;5034179;28;1443;-75
2022/10/30 02:23:42;;;;;;;;;;;;;;;;;;5033941;28;854;-77
2022/10/30 02:26:08;;;;;;;;;;;;;;;;;;5050539;28;1436;-77
2022/10/30 02:28:34;;;;;;;;;;;;;;;;;;5033526;28;1481;-76
2022/10/30 02:31:01;;;;;;;;;;;;;;;;;;5051824;28;957;-77
2022/10/30 02:33:27;;;;;;;;;;;;;;;;;;5033398;28;1747;-77
2022/10/30 02:35:53;;;;;;;;;;;;;;;;;;5050481;28;1313;-77
2022/10/30 02:38:21;;;;;;;;;;;;;;;;;;5033665;28;1297;-75
2022/10/30 02:40:49;;;;;;;;;;;;;;;;;;5050587;28;1910;-78
2022/10/30 02:43:15;;;;;;;;;;;;;;;;;;5050452;28;1068;-78
2022/10/30 02:45:42;;;;;;;;;;;;;;;;;;5033803;28;1222;-76
2022/10/30 02:48:09;;;;;;;;;;;;;;;;;;5050483;28;1345;-76
2022/10/30 02:50:36;;;;;;;;;;;;;;;;;;5033760;28;1335;-76
2022/10/30 02:53:02;;;;;;;;;;;;;;;;;;5048149;28;1239;-76
2022/10/30 02:55:30;;;;;;;;;;;;;;;;;;5050171;28;1146;-75
2022/10/30 02:57:56;;;;;;;;;;;;;;;;;;5049493;28;1418;-76
2022/10/30 03:00:22;;;;;;;;;;;;;;;;;;5033259;28;1906;-74
2022/10/30 03:02:53;;;;;;;;;;;;;;;;;;5049231;28;1195;-78
2022/10/30 03:05:20;;;;;;;;;;;;;;;;;;5050047;28;1523;-76
2022/10/30 03:07:47;;;;;;;;;;;;;;;;;;5049320;28;1329;-74
2022/10/30 03:10:14;;;;;;;;;;;;;;;;;;5033427;28;1347;-76
2022/10/30 03:12:41;;;;;;;;;;;;;;;;;;5032652;28;1445;-77
2022/10/30 03:15:08;;;;;;;;;;;;;;;;;;5051045;28;740;-76
2022/10/30 03:17:35;;;;;;;;;;;;;;;;;;5049402;28;1349;-76
2022/10/30 03:20:01;;;;;;;;;;;;;;;;;;5049299;28;1914;-73
2022/10/30 03:22:28;;;;;;;;;;;;;;;;;;5049080;28;1274;-76
2022/10/30 03:24:54;;;;;;;;;;;;;;;;;;5033310;28;1473;-76
2022/10/30 03:27:21;;;;;;;;;;;;;;;;;;5049267;28;1531;-78
2022/10/30 03:29:51;;;;;;;;;;;;;;;;;;5050811;28;938;-76
2022/10/30 03:32:17;;;;;;;;;;;;;;;;;;5032320;28;1217;-75
2022/10/30 03:34:46;;;;;;;;;;;;;;;;;;5050267;28;1530;-76
2022/10/30 03:37:13;;;;;;;;;;;;;;;;;;5032241;28;1516;-76
2022/10/30 03:39:39;;;;;;;;;;;;;;;;;;5032558;28;1979;-77
2022/10/30 03:42:05;;;;;;;;;;;;;;;;;;5032370;28;1152;-76
2022/10/30 03:44:31;;;;;;;;;;;;;;;;;;5049392;28;1209;-76
2022/10/30 03:46:59;;;;;;;;;;;;;;;;;;5032663;28;1423;-76
2022/10/30 03:49:28;;;;;;;;;;;;;;;;;;5049401;28;1513;-76
2022/10/30 03:51:56;;;;;;;;;;;;;;;;;;5031874;28;1471;-76
2022/10/30 03:54:24;;;;;;;;;;;;;;;;;;5032764;28;1285;-76
2022/10/30 03:56:50;;;;;;;;;;;;;;;;;;5049000;28;1574;-76
2022/10/30 03:59:17;;;;;;;;;;;;;;;;;;5048877;28;1987;-77
2022/10/30 04:01:54;;;;;;;;;;;;;;;;;;5048544;28;1057;-74
2022/10/30 04:04:22;;;;;;;;;;;;;;;;;;5033083;28;1305;-78
2022/10/30 04:06:48;;;;;;;;;;;;;;;;;;5032660;28;1304;-76
2022/10/30 04:09:15;;;;;;;;;;;;;;;;;;5032882;28;1478;-76
2022/10/30 04:11:43;;;;;;;;;;;;;;;;;;5048510;28;1335;-77
2022/10/30 04:14:09;;;;;;;;;;;;;;;;;;5032347;28;1211;-77
2022/10/30 04:16:36;;;;;;;;;;;;;;;;;;5048896;28;1145;-76
2022/10/30 04:19:03;;;;;;;;;;;;;;;;;;5048941;28;1421;-76
2022/10/30 04:21:30;;;;;;;;;;;;;;;;;;5048545;28;2032;-76
2022/10/30 04:23:57;;;;;;;;;;;;;;;;;;5032398;28;1287;-76
2022/10/30 04:26:26;;;;;;;;;;;;;;;;;;5032269;28;1276;-73
2022/10/30 04:28:52;;;;;;;;;;;;;;;;;;5031945;28;1368;-76
2022/10/30 04:31:19;;;;;;;;;;;;;;;;;;5033912;28;1243;-74
2022/10/30 04:33:45;;;;;;;;;;;;;;;;;;5052653;28;1296;-76
2022/10/30 04:36:11;;;;;;;;;;;;;;;;;;5053955;28;1066;-76
2022/10/30 04:38:39;;;;;;;;;;;;;;;;;;5052636;28;1318;-76
2022/10/30 04:41:09;;;;;;;;;;;;;;;;;;5036043;28;1987;-76
2022/10/30 04:43:59;;;;;;;;;;;;;;;;;;5052485;28;957;-78
2022/10/30 04:46:29;;;;;;;;;;;;;;;;;;5036120;28;1479;-75
2022/10/30 04:49:05;;;;;;;;;;;;;;;;;;5052397;28;1456;-75
2022/10/30 04:51:31;;;;;;;;;;;;;;;;;;5035099;28;1470;-76
2022/10/30 04:53:59;;;;;;;;;;;;;;;;;;5035602;28;1199;-75
2022/10/30 04:56:28;;;;;;;;;;;;;;;;;;5035850;28;1373;-76
2022/10/30 04:58:54;;;;;;;;;;;;;;;;;;5035797;28;1396;-76
2022/10/30 05:01:20;;;;;;;;;;;;;;;;;;5051362;28;1981;-74
2022/10/30 05:03:46;;;;;;;;;;;;;;;;;;5051826;28;1180;-75
2022/10/30 05:06:17;;;;;;;;;;;;;;;;;;5035522;28;1428;-77
2022/10/30 05:08:43;;;;;;;;;;;;;;;;;;5051873;28;1430;-75
2022/10/30 05:11:20;;;;;;;;;;;;;;;;;;5034790;28;1306;-75
2022/10/30 05:13:46;;;;;;;;;;;;;;;;;;5051674;28;1325;-76
2022/10/30 05:16:13;;;;;;;;;;;;;;;;;;5052087;28;1324;-75
2022/10/30 05:18:39;;;;;;;;;;;;;;;;;;5035260;28;1325;-76
2022/10/30 05:21:05;;;;;;;;;;;;;;;;;;5051820;28;1918;-76
2022/10/30 05:23:31;;;;;;;;;;;;;;;;;;5050642;28;1238;-76
2022/10/30 05:25:59;;;;;;;;;;;;;;;;;;5044011;28;1432;-77
2022/10/30 05:28:28;;;;;;;;;;;;;;;;;;4958077;28;1487;-77
2022/10/30 05:30:57;;;;;;;;;;;;;;;;;;4989286;28;837;-78
2022/10/30 05:33:43;;;;;;;;;;;;;;;;;;5015692;28;1023;-76
2022/10/30 05:36:10;;;;;;;;;;;;;;;;;;4991304;28;1301;-78
2022/10/30 05:38:37;;;;;;;;;;;;;;;;;;4993210;28;1284;-79
2022/10/30 05:41:07;;;;;;;;;;;;;;;;;;4984401;28;1946;-79
2022/10/30 05:43:35;;;;;;;;;;;;;;;;;;4989119;28;1534;-79
2022/10/30 05:46:02;;;;;;;;;;;;;;;;;;4981376;28;1126;-78
2022/10/30 05:48:28;;;;;;;;;;;;;;;;;;4965484;28;1637;-77
2022/10/30 05:50:55;;;;;;;;;;;;;;;;;;4983721;28;1101;-79
2022/10/30 05:53:25;;;;;;;;;;;;;;;;;;4975591;28;1638;-77
2022/10/30 05:55:56;;;;;;;;;;;;;;;;;;4971852;28;869;-76
2022/10/30 05:58:23;;;;;;;;;;;;;;;;;;4962918;28;1383;-78
2022/10/30 06:00:51;;;;;;;;;;;;;;;;;;4962665;28;1999;-78
2022/10/30 06:03:30;;;;;;;;;;;;;;;;;;4959769;28;1360;-76
2022/10/30 06:05:57;;;;;;;;;;;;;;;;;;5006994;28;1309;-76
2022/10/30 06:08:23;;;;;;;;;;;;;;;;;;5014523;28;1504;-77
2022/10/30 06:10:53;;;;;;;;;;;;;;;;;;4994138;28;1384;-77
2022/10/30 06:13:26;;;;;;;;;;;;;;;;;;5043462;28;1070;-78
2022/10/30 06:15:58;;;;;;;;;;;;;;;;;;5024999;28;1614;-77
2022/10/30 06:18:33;;;;;;;;;;;;;;;;;;5029782;28;1478;-78
2022/10/30 06:21:08;;;;;;;;;;;;;;;;;;5031029;28;1950;-78
2022/10/30 06:23:43;;;;;;;;;;;;;;;;;;5030517;28;1185;-76
2022/10/30 06:26:26;;;;;;;;;;;;;;;;;;5031918;28;1706;-76
2022/10/30 06:28:56;;;;;;;;;;;;;;;;;;5023780;28;1529;-76
2022/10/30 06:31:24;;;;;;;;;;;;;;;;;;4999501;28;1322;-76
2022/10/30 06:33:50;;;;;;;;;;;;;;;;;;4990491;28;1602;-76
2022/10/30 06:36:17;;;;;;;;;;;;;;;;;;4990113;28;1436;-76
2022/10/30 06:38:44;;;;;;;;;;;;;;;;;;4974641;28;1475;-78
2022/10/30 06:41:13;;;;;;;;;;;;;;;;;;4982858;28;2000;-76
2022/10/30 06:44:04;;;;;;;;;;;;;;;;;;4981949;28;1603;-76
2022/10/30 06:46:33;;;;;;;;;;;;;;;;;;4981166;28;1116;-77
2022/10/30 06:49:00;;;;;;;;;;;;;;;;;;4983965;28;1385;-76
2022/10/30 06:51:27;;;;;;;;;;;;;;;;;;4989163;28;1305;-76
2022/10/30 06:53:54;;;;;;;;;;;;;;;;;;4985209;28;1506;-76
2022/10/30 06:56:39;;;;;;;;;;;;;;;;;;4975446;28;609;-76
2022/10/30 06:59:14;;;;;;;;;;;;;;;;;;4984104;28;1419;-75
2022/10/30 07:01:46;;;;;;;;;;;;;;;;;;4966504;28;1934;-75
2022/10/30 07:04:17;;;;;;;;;;;;;;;;;;4980891;28;1215;-76
2022/10/30 07:06:44;;;;;;;;;;;;;;;;;;4986523;28;1203;-76
2022/10/30 07:09:11;;;;;;;;;;;;;;;;;;4984040;28;1372;-75
2022/10/30 07:11:39;;;;;;;;;;;;;;;;;;4981588;28;1406;-75
2022/10/30 07:14:18;;;;;;;;;;;;;;;;;;5030708;28;1455;-75
2022/10/30 07:16:55;;;;;;;;;;;;;;;;;;5049339;28;1463;-75
2022/10/30 07:19:21;;;;;;;;;;;;;;;;;;5041402;28;1314;-76
2022/10/30 07:21:48;;;;;;;;;;;;;;;;;;5047932;28;1963;-77
2022/10/30 07:24:14;;;;;;;;;;;;;;;;;;5049602;28;1555;-76
2022/10/30 07:26:59;;;;;;;;;;;;;;;;;;5051273;28;620;-77
2022/10/30 07:29:37;;;;;;;;;;;;;;;;;;5075951;22;3528;-76
2022/10/30 07:32:31;;;;;;;;;;;;;;;;;;5066094;28;1112;-75
2022/10/30 07:35:14;;;;;;;;;;;;;;;;;;5073025;28;1329;-76
2022/10/30 07:37:52;;;;;;;;;;;;;;;;;;5090865;28;624;-75
2022/10/30 07:40:19;;;;;;;;;;;;;;;;;;5072745;28;1458;-76
2022/10/30 07:43:04;;;;;;;;;;;;;;;;;;5090417;28;675;-76
2022/10/30 07:45:45;;;;;;;;;;;;;;;;;;5072456;28;1230;-75
2022/10/30 07:48:15;;;;;;;;;;;;;;;;;;5090658;28;830;-76
2022/10/30 07:51:07;;;;;;;;;;;;;;;;;;5086379;28;1304;-75
2022/10/30 07:53:34;;;;;;;;;;;;;;;;;;5072080;28;1658;-75
2022/10/30 07:56:00;;;;;;;;;;;;;;;;;;5072708;28;1456;-76
2022/10/30 07:58:45;;;;;;;;;;;;;;;;;;5090850;28;667;-76
2022/10/30 08:01:34;;;;;;;;;;;;;;;;;;5079040;28;1910;-76
2022/10/30 08:04:20;;;;;;;;;;;;;;;;;;5090252;28;709;-76
2022/10/30 08:06:47;;;;;;;;;;;;;;;;;;5075813;28;1532;-76
2022/10/30 08:09:13;;;;;;;;;;;;;;;;;;5076192;28;1325;-76
2022/10/30 08:11:39;;;;;;;;;;;;;;;;;;5075933;28;1311;-75
2022/10/30 08:14:06;;;;;;;;;;;;;;;;;;5076466;28;1139;-76
2022/10/30 08:16:32;;;;;;;;;;;;;;;;;;5076465;28;1487;-76
2022/10/30 08:18:58;;;;;;;;;;;;;;;;;;5076095;28;1340;-76
2022/10/30 08:21:26;;;;;;;;;;;;;;;;;;5075203;28;1963;-76
2022/10/30 08:24:15;;;;;;;;;;;;;;;;;;5083957;28;1407;-77
2022/10/30 08:26:45;;;;;;;;;;;;;;;;;;5063625;28;1385;-76
2022/10/30 08:29:11;;;;;;;;;;;;;;;;;;5066409;28;1306;-76
2022/10/30 08:31:38;;;;;;;;;;;;;;;;;;5073977;28;1355;-76
2022/10/30 08:34:36;;;;;;;;;;;;;;;;;;5086231;28;1321;-77
2022/10/30 08:37:07;;;;;;;;;;;;;;;;;;5076104;28;1482;-73
2022/10/30 08:39:34;;;;;;;;;;;;;;;;;;5051885;28;1475;-76
2022/10/30 08:42:26;;;;;;;;;;;;;;;;;;5053774;28;1918;-72
2022/10/30 08:44:54;;;;;;;;;;;;;;;;;;5064322;28;1404;-75
2022/10/30 08:47:46;;;;;;;;;;;;;;;;;;5063160;28;1555;-75
2022/10/30 08:50:13;;;;;;;;;;;;;;;;;;5075058;28;1539;-74
2022/10/30 08:52:41;;;;;;;;;;;;;;;;;;5075560;28;1497;-74
2022/10/30 08:55:08;;;;;;;;;;;;;;;;;;5075978;28;1226;-75
2022/10/30 08:57:35;;;;;;;;;;;;;;;;;;5075784;28;1297;-73
2022/10/30 09:00:01;;;;;;;;;;;;;;;;;;5075823;28;1421;-75
2022/10/30 09:02:50;;;;;;;;;;;;;;;;;;5093026;28;1965;-75
2022/10/30 09:05:39;;;;;;;;;;;;;;;;;;5093691;28;1091;-77
2022/10/30 09:08:29;;;;;;;;;;;;;;;;;;5093598;28;1001;-75
2022/10/30 09:11:07;;;;;;;;;;;;;;;;;;5075041;28;1404;-77
2022/10/30 09:13:33;;;;;;;;;;;;;;;;;;5033626;28;979;-75
2022/10/30 09:16:01;;;;;;;;;;;;;;;;;;5035454;28;1484;-75
2022/10/30 09:18:29;;;;;;;;;;;;;;;;;;5034871;28;1401;-75
2022/10/30 09:20:56;;;;;;;;;;;;;;;;;;5035524;28;1437;-75
2022/10/30 09:23:23;;;;;;;;;;;;;;;;;;5034080;28;1393;-74
2022/10/30 09:25:58;;;;;;;;;;;;;;;;;;5035494;28;1213;-76
2022/10/30 09:28:41;;;;;;;;;;;;;;;;;;5035223;28;1236;-77
2022/10/30 09:31:45;;;;;;;;;;;;;;;;;;5052575;28;1149;-77
2022/10/30 09:34:16;;;;;;;;;;;;;;;;;;5035717;28;1460;-74
2022/10/30 09:36:46;;;;;;;;;;;;;;;;;;5037206;28;1373;-77
2022/10/30 09:39:13;;;;;;;;;;;;;;;;;;5036476;28;1391;-74
2022/10/30 09:41:56;;;;;;;;;;;;;;;;;;5034536;28;1911;-76
2022/10/30 09:44:25;;;;;;;;;;;;;;;;;;5033577;28;1314;-75
2022/10/30 09:46:55;;;;;;;;;;;;;;;;;;5033977;28;1192;-74
2022/10/30 09:49:27;;;;;;;;;;;;;;;;;;5034749;28;1295;-73
2022/10/30 09:52:00;;;;;;;;;;;;;;;;;;5033017;28;1080;-74
2022/10/30 09:54:29;;;;;;;;;;;;;;;;;;5033917;28;1191;-77
2022/10/30 09:56:58;;;;;;;;;;;;;;;;;;5035395;28;1612;-75
2022/10/30 09:59:27;;;;;;;;;;;;;;;;;;5033341;28;1331;-74
2022/10/30 10:01:55;;;;;;;;;;;;;;;;;;5032939;28;1910;-74
2022/10/30 10:04:23;;;;;;;;;;;;;;;;;;5032238;28;1336;-75
2022/10/30 10:07:16;;;;;;;;;;;;;;;;;;5051151;28;823;-75
2022/10/30 10:09:51;;;;;;;;;;;;;;;;;;5032969;28;1311;-75
2022/10/30 10:12:35;;;;;;;;;;;;;;;;;;5033765;28;1423;-75
2022/10/30 10:15:02;;;;;;;;;;;;;;;;;;5051677;28;918;-75
2022/10/30 10:17:30;;;;;;;;;;;;;;;;;;5052133;28;913;-75
2022/10/30 10:19:58;;;;;;;;;;;;;;;;;;5034228;28;1343;-74
2022/10/30 10:22:25;;;;;;;;;;;;;;;;;;5051576;28;1973;-74
2022/10/30 10:24:52;;;;;;;;;;;;;;;;;;5034276;28;1130;-75
2022/10/30 10:27:21;;;;;;;;;;;;;;;;;;5052218;28;1063;-75
2022/10/30 10:29:52;;;;;;;;;;;;;;;;;;5051322;28;1405;-75
2022/10/30 10:32:35;;;;;;;;;;;;;;;;;;5032909;28;1447;-74
2022/10/30 10:35:20;;;;;;;;;;;;;;;;;;5052079;28;1115;-75
2022/10/30 10:37:47;;;;;;;;;;;;;;;;;;5035002;28;1334;-75
2022/10/30 10:40:26;;;;;;;;;;;;;;;;;;5034420;28;1380;-75
2022/10/30 10:42:55;;;;;;;;;;;;;;;;;;5032965;28;1922;-74
2022/10/30 10:45:24;;;;;;;;;;;;;;;;;;5033351;28;1175;-75
2022/10/30 10:48:05;;;;;;;;;;;;;;;;;;5033641;28;1212;-75
2022/10/30 10:50:32;;;;;;;;;;;;;;;;;;5048643;28;1322;-76
2022/10/30 10:52:59;;;;;;;;;;;;;;;;;;5032642;28;1346;-75
2022/10/30 10:55:27;;;;;;;;;;;;;;;;;;5051223;28;1095;-75
2022/10/30 10:57:53;;;;;;;;;;;;;;;;;;5051232;28;1055;-74
2022/10/30 11:00:21;;;;;;;;;;;;;;;;;;5033336;28;1432;-78
2022/10/30 11:02:51;;;;;;;;;;;;;;;;;;5050518;28;1914;-73
2022/10/30 11:05:20;;;;;;;;;;;;;;;;;;5051209;28;1075;-75
2022/10/30 11:07:46;;;;;;;;;;;;;;;;;;5051290;28;944;-75
2022/10/30 11:10:13;;;;;;;;;;;;;;;;;;5034041;28;1403;-76
2022/10/30 11:12:40;;;;;;;;;;;;;;;;;;5051840;28;1067;-75
2022/10/30 11:15:07;;;;;;;;;;;;;;;;;;5034304;28;1195;-74
2022/10/30 11:17:35;;;;;;;;;;;;;;;;;;5052163;28;842;-76
2022/10/30 11:20:05;;;;;;;;;;;;;;;;;;5052263;28;1290;-75
2022/10/30 11:22:33;;;;;;;;;;;;;;;;;;5051737;28;1910;-78
2022/10/30 11:25:05;;;;;;;;;;;;;;;;;;5052403;28;933;-75
2022/10/30 11:27:31;;;;;;;;;;;;;;;;;;5051291;28;1507;-74
2022/10/30 11:29:59;;;;;;;;;;;;;;;;;;5052102;28;1301;-75
2022/10/30 11:32:26;;;;;;;;;;;;;;;;;;5049851;28;1404;-75
2022/10/30 11:35:00;;;;;;;;;;;;;;;;;;5032675;28;1136;-76
2022/10/30 11:37:31;;;;;;;;;;;;;;;;;;5050027;28;1107;-75
2022/10/30 11:40:02;;;;;;;;;;;;;;;;;;5033372;28;1431;-75
2022/10/30 11:42:28;;;;;;;;;;;;;;;;;;5051328;28;1970;-76
2022/10/30 11:44:54;;;;;;;;;;;;;;;;;;5052067;28;1111;-75
2022/10/30 11:47:21;;;;;;;;;;;;;;;;;;5051526;28;1325;-76
2022/10/30 11:49:48;;;;;;;;;;;;;;;;;;5052137;28;1404;-76
2022/10/30 11:52:15;;;;;;;;;;;;;;;;;;5051266;28;759;-75
2022/10/30 11:54:44;;;;;;;;;;;;;;;;;;5033915;28;1274;-75
2022/10/30 11:57:18;;;;;;;;;;;;;;;;;;5051905;28;1167;-75
2022/10/30 11:59:44;;;;;;;;;;;;;;;;;;5051903;28;1363;-76
2022/10/30 12:02:19;;;;;;;;;;;;;;;;;;5051084;28;1968;-75
2022/10/30 12:04:45;;;;;;;;;;;;;;;;;;5051231;28;937;-75
2022/10/30 12:07:17;;;;;;;;;;;;;;;;;;5051770;28;1102;-76
2022/10/30 12:09:45;;;;;;;;;;;;;;;;;;5034277;28;1313;-74
2022/10/30 12:12:12;;;;;;;;;;;;;;;;;;5051035;28;989;-75
2022/10/30 12:14:38;;;;;;;;;;;;;;;;;;5051552;28;936;-76
2022/10/30 12:17:04;;;;;;;;;;;;;;;;;;5051873;28;1083;-75
2022/10/30 12:19:31;;;;;;;;;;;;;;;;;;5051721;28;1313;-75
2022/10/30 12:21:57;;;;;;;;;;;;;;;;;;5038300;28;1965;-74
2022/10/30 12:24:25;;;;;;;;;;;;;;;;;;5053693;28;1187;-75
2022/10/30 12:26:52;;;;;;;;;;;;;;;;;;5071402;28;1060;-75
2022/10/30 12:29:20;;;;;;;;;;;;;;;;;;5071515;28;1294;-76
2022/10/30 12:31:49;;;;;;;;;;;;;;;;;;5071256;28;1056;-78
2022/10/30 12:34:18;;;;;;;;;;;;;;;;;;5071148;28;1120;-74
2022/10/30 12:36:45;;;;;;;;;;;;;;;;;;5053720;28;1090;-76
2022/10/30 12:39:12;;;;;;;;;;;;;;;;;;5053558;28;1303;-75
2022/10/30 12:41:39;;;;;;;;;;;;;;;;;;5053650;28;1108;-75
2022/10/30 12:44:10;;;;;;;;;;;;;;;;;;5073434;28;1972;-76
2022/10/30 12:46:38;;;;;;;;;;;;;;;;;;5077491;28;1212;-76
2022/10/30 12:49:07;;;;;;;;;;;;;;;;;;5066345;28;1409;-75
2022/10/30 12:51:35;;;;;;;;;;;;;;;;;;5074976;28;1458;-75
2022/10/30 12:54:02;;;;;;;;;;;;;;;;;;5074630;28;1310;-75
2022/10/30 12:56:30;;;;;;;;;;;;;;;;;;5053908;28;1346;-76
2022/10/30 12:58:57;;;;;;;;;;;;;;;;;;5074563;28;1294;-73
2022/10/30 13:01:25;;;;;;;;;;;;;;;;;;5074173;28;881;-76
2022/10/30 13:03:53;;;;;;;;;;;;;;;;;;5074595;28;2366;-76
2022/10/30 13:06:20;;;;;;;;;;;;;;;;;;5074905;28;900;-76
2022/10/30 13:08:49;;;;;;;;;;;;;;;;;;5074845;28;1067;-76
2022/10/30 13:11:17;;;;;;;;;;;;;;;;;;5056185;28;1136;-77
2022/10/30 13:13:43;;;;;;;;;;;;;;;;;;5074291;28;849;-74
2022/10/30 13:16:11;;;;;;;;;;;;;;;;;;5075693;28;1538;-76
2022/10/30 13:18:38;;;;;;;;;;;;;;;;;;5078250;28;1355;-76
2022/10/30 13:21:13;;;;;;;;;;;;;;;;;;5077291;28;1416;-76
2022/10/30 13:23:41;;;;;;;;;;;;;;;;;;5078069;28;1910;-76
2022/10/30 13:26:10;;;;;;;;;;;;;;;;;;5091833;28;1261;-76
2022/10/30 13:28:37;;;;;;;;;;;;;;;;;;5081422;28;1593;-76
2022/10/30 13:31:06;;;;;;;;;;;;;;;;;;5087428;28;1341;-76
2022/10/30 13:33:34;;;;;;;;;;;;;;;;;;5065563;28;1853;-76
2022/10/30 13:36:02;;;;;;;;;;;;;;;;;;5065382;28;1232;-76
2022/10/30 13:38:34;;;;;;;;;;;;;;;;;;5094382;28;1110;-76
2022/10/30 13:41:00;;;;;;;;;;;;;;;;;;5079275;28;1609;-76
2022/10/30 13:43:28;;;;;;;;;;;;;;;;;;5087292;28;1910;-76
2022/10/30 13:45:57;;;;;;;;;;;;;;;;;;5056227;28;1275;-77
2022/10/30 13:48:26;;;;;;;;;;;;;;;;;;5054706;28;1314;-77
2022/10/30 13:51:17;;;;;;;;;;;;;;;;;;5072561;28;1391;-77
2022/10/30 13:53:45;;;;;;;;;;;;;;;;;;5058147;28;1248;-76
2022/10/30 13:56:12;;;;;;;;;;;;;;;;;;5092124;28;1177;-74
2022/10/30 13:58:39;;;;;;;;;;;;;;;;;;5076114;28;1114;-76
2022/10/30 14:01:06;;;;;;;;;;;;;;;;;;5076071;28;1353;-77
2022/10/30 14:03:37;;;;;;;;;;;;;;;;;;5074127;28;1922;-76
2022/10/30 14:06:07;;;;;;;;;;;;;;;;;;5094123;28;766;-77
2022/10/30 14:08:35;;;;;;;;;;;;;;;;;;5089345;28;1431;-76
2022/10/30 14:11:02;;;;;;;;;;;;;;;;;;5062032;28;1468;-76
2022/10/30 14:13:29;;;;;;;;;;;;;;;;;;5077942;28;1384;-77
2022/10/30 14:15:56;;;;;;;;;;;;;;;;;;5079549;28;1354;-75
2022/10/30 14:18:30;;;;;;;;;;;;;;;;;;5082432;28;1451;-76
2022/10/30 14:20:56;;;;;;;;;;;;;;;;;;5069958;28;1381;-75
2022/10/30 14:23:23;;;;;;;;;;;;;;;;;;5074847;28;1969;-74
2022/10/30 14:26:08;;;;;;;;;;;;;;;;;;5075463;28;1402;-77
2022/10/30 14:28:36;;;;;;;;;;;;;;;;;;5063150;28;1388;-75
2022/10/30 14:31:02;;;;;;;;;;;;;;;;;;5056557;28;1427;-75
2022/10/30 14:33:37;;;;;;;;;;;;;;;;;;5065346;28;1455;-76
2022/10/30 14:36:13;;;;;;;;;;;;;;;;;;5082515;28;1181;-76
2022/10/30 14:38:40;;;;;;;;;;;;;;;;;;5093465;28;1048;-75
2022/10/30 14:41:13;;;;;;;;;;;;;;;;;;5093272;28;1458;-75
2022/10/30 14:43:42;;;;;;;;;;;;;;;;;;5058459;28;1981;-75
2022/10/30 14:46:10;;;;;;;;;;;;;;;;;;5083130;28;1181;-77
2022/10/30 14:48:38;;;;;;;;;;;;;;;;;;5081124;22;3681;-75
2022/10/30 14:51:08;;;;;;;;;;;;;;;;;;5050895;28;1023;-75
2022/10/30 14:53:37;;;;;;;;;;;;;;;;;;5037842;28;1479;-75
2022/10/30 14:56:05;;;;;;;;;;;;;;;;;;5038132;28;1396;-76
2022/10/30 14:58:31;;;;;;;;;;;;;;;;;;5043768;28;1364;-75
2022/10/30 15:01:16;;;;;;;;;;;;;;;;;;5062149;28;1405;-75
2022/10/30 15:03:47;;;;;;;;;;;;;;;;;;5072374;28;1918;-74
2022/10/30 15:06:16;;;;;;;;;;;;;;;;;;5068232;28;1415;-75
2022/10/30 15:08:44;;;;;;;;;;;;;;;;;;5042520;28;1389;-75
2022/10/30 15:11:19;;;;;;;;;;;;;;;;;;5071275;28;1166;-75
2022/10/30 15:13:46;;;;;;;;;;;;;;;;;;5054159;28;1132;-75
2022/10/30 15:16:12;;;;;;;;;;;;;;;;;;5048228;28;1376;-75
2022/10/30 15:18:39;;;;;;;;;;;;;;;;;;5056533;28;1951;-75
2022/10/30 15:21:07;;;;;;;;;;;;;;;;;;5043903;28;1591;-76
2022/10/30 15:23:34;;;;;;;;;;;;;;;;;;5043676;28;1910;-76
2022/10/30 15:26:01;;;;;;;;;;;;;;;;;;5060868;28;1236;-76
2022/10/30 15:28:28;;;;;;;;;;;;;;;;;;5054123;28;1820;-72
2022/10/30 15:30:57;;;;;;;;;;;;;;;;;;5071962;28;1059;-74
2022/10/30 15:33:24;;;;;;;;;;;;;;;;;;5058709;28;1405;-75
2022/10/30 15:35:50;;;;;;;;;;;;;;;;;;5059582;28;1404;-73
2022/10/30 15:38:17;;;;;;;;;;;;;;;;;;5053122;28;1434;-75
2022/10/30 15:40:44;;;;;;;;;;;;;;;;;;5054045;28;1370;-75
2022/10/30 15:43:11;;;;;;;;;;;;;;;;;;5069476;28;1902;-73
2022/10/30 15:45:37;;;;;;;;;;;;;;;;;;5054186;28;1209;-76
2022/10/30 15:48:06;;;;;;;;;;;;;;;;;;5069555;28;1308;-76
2022/10/30 15:50:33;;;;;;;;;;;;;;;;;;5071651;28;1096;-75
2022/10/30 15:52:59;;;;;;;;;;;;;;;;;;5059879;28;1513;-76
2022/10/30 15:55:28;;;;;;;;;;;;;;;;;;5064191;28;1250;-75
2022/10/30 15:57:54;;;;;;;;;;;;;;;;;;5067768;28;1598;-76
2022/10/30 16:00:21;;;;;;;;;;;;;;;;;;5036010;28;1466;-78
2022/10/30 16:02:49;;;;;;;;;;;;;;;;;;4986514;28;1464;-75
2022/10/30 16:05:22;;;;;;;;;;;;;;;;;;4976416;28;1958;-76
2022/10/30 16:07:48;;;;;;;;;;;;;;;;;;4978861;28;827;-76
2022/10/30 16:10:15;;;;;;;;;;;;;;;;;;4965271;28;1325;-76
2022/10/30 16:12:43;;;;;;;;;;;;;;;;;;4965030;28;854;-76
2022/10/30 16:15:24;;;;;;;;;;;;;;;;;;4967659;28;812;-75
2022/10/30 16:17:57;;;;;;;;;;;;;;;;;;4986818;28;1658;-76
2022/10/30 16:20:24;;;;;;;;;;;;;;;;;;5023786;28;941;-76
2022/10/30 16:22:50;;;;;;;;;;;;;;;;;;5000091;28;858;-76
2022/10/30 16:25:17;;;;;;;;;;;;;;;;;;5047932;28;1914;-76
2022/10/30 16:27:45;;;;;;;;;;;;;;;;;;5039788;28;1420;-75
2022/10/30 16:30:11;;;;;;;;;;;;;;;;;;5067106;28;1417;-77
2022/10/30 16:32:38;;;;;;;;;;;;;;;;;;5058938;28;1471;-77
2022/10/30 16:35:04;;;;;;;;;;;;;;;;;;5027987;28;1688;-77
2022/10/30 16:37:32;;;;;;;;;;;;;;;;;;5022732;28;1558;-77
2022/10/30 16:39:58;;;;;;;;;;;;;;;;;;5060442;28;1324;-76
2022/10/30 16:42:25;;;;;;;;;;;;;;;;;;5033398;28;1282;-75
2022/10/30 16:44:52;;;;;;;;;;;;;;;;;;5029301;28;1967;-76
2022/10/30 16:47:22;;;;;;;;;;;;;;;;;;5051750;28;1205;-77
2022/10/30 16:49:49;;;;;;;;;;;;;;;;;;5042505;28;1427;-76
2022/10/30 16:52:15;;;;;;;;;;;;;;;;;;5053091;28;1463;-75
2022/10/30 16:54:46;;;;;;;;;;;;;;;;;;5051697;28;1439;-74
2022/10/30 16:57:13;;;;;;;;;;;;;;;;;;5065651;28;1423;-76
2022/10/30 16:59:43;;;;;;;;;;;;;;;;;;5053791;28;1455;-75
2022/10/30 17:02:14;;;;;;;;;;;;;;;;;;5069218;28;1118;-76
2022/10/30 17:04:41;;;;;;;;;;;;;;;;;;5071514;28;1918;-75
2022/10/30 17:07:15;;;;;;;;;;;;;;;;;;5058497;28;1495;-74
2022/10/30 17:09:41;;;;;;;;;;;;;;;;;;5059151;28;1466;-75
2022/10/30 17:12:11;;;;;;;;;;;;;;;;;;5068270;28;1257;-75
2022/10/30 17:14:41;;;;;;;;;;;;;;;;;;5034399;28;1479;-74
2022/10/30 17:17:14;;;;;;;;;;;;;;;;;;5049642;28;1468;-76
2022/10/30 17:19:48;;;;;;;;;;;;;;;;;;5050888;28;1437;-75
2022/10/30 17:22:15;;;;;;;;;;;;;;;;;;5034382;28;1320;-76